createdAt,value
2018-04-27T00:00:18.626Z,19.72
2018-04-27T00:06:09.465Z,21.6
2018-04-27T00:12:00.346Z,22.95
2018-04-27T00:17:51.233Z,18.34
2018-04-27T00:23:42.031Z,25.14
2018-04-27T00:29:32.969Z,22.36
2018-04-27T00:35:23.789Z,24.55
2018-04-27T00:41:14.592Z,24.05
2018-04-27T00:47:05.432Z,20.33
2018-04-27T00:52:56.272Z,24.9
2018-04-27T00:58:47.134Z,19.81
2018-04-27T01:04:37.942Z,26.96
2018-04-27T01:10:28.837Z,19.8
2018-04-27T01:16:19.653Z,23.49
2018-04-27T01:22:10.491Z,24.98
2018-04-27T01:28:01.434Z,20.48
2018-04-27T01:33:52.200Z,21.95
2018-04-27T01:39:43.078Z,23.29
2018-04-27T01:45:33.991Z,22.13
2018-04-27T01:51:24.754Z,24.04
2018-04-27T01:57:15.615Z,25.78
2018-04-27T02:03:06.449Z,21.39
2018-04-27T02:08:57.327Z,35.32
2018-04-27T02:14:48.095Z,31.14
2018-04-27T02:20:38.955Z,26.31
2018-04-27T02:26:29.813Z,24.1
2018-04-27T02:32:20.663Z,27.14
2018-04-27T02:38:11.496Z,25.51
2018-04-27T02:44:02.328Z,24.91
2018-04-27T02:49:53.161Z,21.68
2018-04-27T02:55:44.000Z,23.24
2018-04-27T03:01:34.853Z,15.9
2018-04-27T03:07:25.687Z,20.52
2018-04-27T03:13:16.556Z,25.37
2018-04-27T03:19:07.331Z,27.22
2018-04-27T03:24:58.183Z,17.42
2018-04-27T03:30:49.042Z,16.65
2018-04-27T03:36:39.884Z,23.31
2018-04-27T03:42:30.699Z,19.49
2018-04-27T03:48:21.542Z,19.75
2018-04-27T03:54:12.345Z,19.65
2018-04-27T04:00:03.183Z,23.78
2018-04-27T04:05:54.025Z,29.44
2018-04-27T04:11:44.873Z,20.52
2018-04-27T04:17:35.677Z,24.85
2018-04-27T04:23:26.539Z,16.65
2018-04-27T04:29:17.357Z,21.7
2018-04-27T04:35:08.204Z,24.22
2018-04-27T04:40:59.100Z,23.35
2018-04-27T04:46:49.867Z,21.37
2018-04-27T04:52:40.778Z,17.64
2018-04-27T04:58:31.519Z,16.92
2018-04-27T05:04:22.351Z,22.35
2018-04-27T05:10:13.185Z,17.71
2018-04-27T05:16:03.936Z,20.06
2018-04-27T05:21:54.771Z,24.11
2018-04-27T05:27:45.602Z,21.2
2018-04-27T05:33:36.451Z,25.34
2018-04-27T05:39:27.272Z,29.45
2018-04-27T05:45:18.143Z,31.02
2018-04-27T05:51:08.998Z,44.11
2018-04-27T05:56:59.847Z,34.36
2018-04-27T06:02:50.642Z,34.44
2018-04-27T06:08:41.490Z,37.28
2018-04-27T06:14:32.391Z,33.09
2018-04-27T06:20:23.159Z,70.7
2018-04-27T06:26:13.986Z,45.44
2018-04-27T06:32:04.896Z,38.28
2018-04-27T06:37:55.679Z,28.48
2018-04-27T06:43:46.515Z,32.1
2018-04-27T06:49:37.386Z,33.34
2018-04-27T06:55:28.334Z,34.91
2018-04-27T07:01:19.053Z,29.54
2018-04-27T07:07:09.932Z,31.24
2018-04-27T07:13:00.807Z,31.91
2018-04-27T07:18:51.662Z,38.49
2018-04-27T07:24:43.436Z,35.51
2018-04-27T07:30:33.377Z,33.29
2018-04-27T07:36:24.215Z,31.91
2018-04-27T07:42:15.069Z,24.28
2018-04-27T07:48:06.020Z,23.94
2018-04-27T07:53:56.840Z,28.39
2018-04-27T07:59:47.731Z,24.29
2018-04-27T08:05:38.562Z,24.03
2018-04-27T08:11:29.405Z,27.38
2018-04-27T08:17:20.345Z,25.49
2018-04-27T08:23:11.188Z,27.67
2018-04-27T08:29:02.058Z,29.09
2018-04-27T08:34:52.914Z,23.69
2018-04-27T08:40:43.889Z,21.36
2018-04-27T08:46:34.722Z,27.7
2018-04-27T08:52:25.614Z,30.57
2018-04-27T08:58:16.518Z,19.74
2018-04-27T09:04:07.403Z,22.25
2018-04-27T09:09:58.318Z,21.58
2018-04-27T09:15:49.265Z,22.69
2018-04-27T09:21:40.175Z,24.58
2018-04-27T09:27:30.876Z,15.25
2018-04-27T09:33:21.749Z,18.51
2018-04-27T09:39:12.541Z,18.74
2018-04-27T09:45:03.389Z,15.84
2018-04-27T09:50:54.247Z,22.6
2018-04-27T09:56:45.088Z,15.81
2018-04-27T10:02:36.005Z,19.3
2018-04-27T10:08:26.833Z,16.41
2018-04-27T10:14:17.635Z,15.11
2018-04-27T10:20:08.519Z,14.91
2018-04-27T10:25:59.465Z,14.11
2018-04-27T10:31:50.277Z,10.6
2018-04-27T10:37:41.159Z,10.61
2018-04-27T10:43:32.074Z,11.24
2018-04-27T10:49:22.946Z,7.52
2018-04-27T10:55:13.817Z,10.54
2018-04-27T11:01:04.708Z,4.58
2018-04-27T11:06:55.630Z,9.61
2018-04-27T11:12:46.502Z,8.05
2018-04-27T11:18:37.413Z,5.64
2018-04-27T11:24:28.359Z,6.44
2018-04-27T11:30:19.283Z,9.31
2018-04-27T11:36:10.174Z,9.95
2018-04-27T11:42:01.075Z,5.99
2018-04-27T11:47:51.976Z,7.85
2018-04-27T11:53:42.899Z,5.85
2018-04-27T11:59:33.804Z,6.29
2018-04-27T12:05:24.731Z,8.31
2018-04-27T12:11:15.693Z,8.54
2018-04-27T12:17:06.564Z,7.06
2018-04-27T12:22:57.504Z,8.93
2018-04-27T12:28:48.430Z,10.78
2018-04-27T12:34:39.346Z,9.48
2018-04-27T12:40:30.291Z,10.86
2018-04-27T12:46:21.202Z,9.25
2018-04-27T12:52:12.298Z,6.76
2018-04-27T12:58:03.117Z,8.89
2018-04-27T13:03:54.028Z,6.34
2018-04-27T13:09:45.002Z,8.32
2018-04-27T13:15:35.928Z,6.4
2018-04-27T13:21:26.865Z,4.47
2018-04-27T13:27:17.772Z,9.39
2018-04-27T13:33:08.703Z,7.34
2018-04-27T13:38:59.737Z,4.28
2018-04-27T13:44:50.575Z,8.56
2018-04-27T13:50:41.561Z,8.64
2018-04-27T13:56:32.492Z,7.95
2018-04-27T14:02:23.422Z,4.89
2018-04-27T14:08:14.347Z,7.6
2018-04-27T14:14:05.320Z,8.85
2018-04-27T14:19:56.271Z,9.98
2018-04-27T14:25:47.240Z,5.79
2018-04-27T14:31:38.123Z,5.9
2018-04-27T14:37:29.068Z,9.12
2018-04-27T14:43:19.996Z,9.12
2018-04-27T14:49:10.920Z,11.86
2018-04-27T14:55:01.855Z,12.23
2018-04-27T15:00:52.806Z,5.81
2018-04-27T15:06:43.759Z,10.9
2018-04-27T15:12:34.728Z,11.21
2018-04-27T15:18:25.617Z,6.95
2018-04-27T15:24:16.536Z,6.65
2018-04-27T15:30:07.456Z,10.75
2018-04-27T15:35:58.389Z,10.51
2018-04-27T15:41:49.298Z,7.13
2018-04-27T15:47:40.195Z,10.9
2018-04-27T15:53:31.125Z,10.85
2018-04-27T15:59:22.062Z,11.43
2018-04-27T16:05:12.948Z,13.25
2018-04-27T16:11:03.833Z,8.02
2018-04-27T16:16:54.718Z,14.52
2018-04-27T16:22:45.639Z,12.31
2018-04-27T16:28:36.504Z,12.22
2018-04-27T16:34:27.364Z,10.05
2018-04-27T16:40:18.277Z,11.81
2018-04-27T16:46:09.173Z,14.89
2018-04-27T16:52:00.022Z,12.51
2018-04-27T16:57:50.875Z,16.24
2018-04-27T17:03:41.807Z,14.83
2018-04-27T17:09:32.607Z,13.5
2018-04-27T17:15:23.440Z,11.64
2018-04-27T17:21:14.333Z,36.38
2018-04-27T17:27:05.160Z,81.99
2018-04-27T17:32:55.994Z,31.65
2018-04-27T17:38:46.819Z,14.72
2018-04-27T17:44:37.719Z,24.16
2018-04-27T17:50:28.553Z,14.49
2018-04-27T17:56:19.395Z,16.42
2018-04-27T18:02:10.232Z,27.2
2018-04-27T18:08:01.090Z,19.67
2018-04-27T18:13:51.878Z,17.07
2018-04-27T18:19:42.736Z,21.04
2018-04-27T18:25:33.587Z,15.24
2018-04-27T18:31:24.385Z,13.73
2018-04-27T18:37:15.170Z,13.65
2018-04-27T18:43:06.071Z,13.41
2018-04-27T18:48:56.863Z,18.02
2018-04-27T18:54:47.785Z,16.64
2018-04-27T19:00:38.487Z,14.09
2018-04-27T19:06:29.329Z,16.09
2018-04-27T19:12:20.204Z,15.98
2018-04-27T19:18:11.189Z,15.34
2018-04-27T19:24:02.088Z,15.19
2018-04-27T19:29:53.007Z,17.77
2018-04-27T19:35:43.906Z,15.49
2018-04-27T19:41:34.784Z,16.54
2018-04-27T19:47:25.685Z,15.74
2018-04-27T19:53:16.621Z,22.13
2018-04-27T19:59:07.527Z,14.82
2018-04-27T20:04:58.484Z,16.79
2018-04-27T20:10:49.505Z,15.93
2018-04-27T20:16:40.231Z,14.34
2018-04-27T20:22:31.195Z,16.67
2018-04-27T20:28:22.022Z,13.55
2018-04-27T20:34:12.919Z,13.18
2018-04-27T20:40:03.874Z,14.6
2018-04-27T20:45:54.728Z,19.52
2018-04-27T20:51:45.612Z,18.42
2018-04-27T20:57:36.549Z,15.98
2018-04-27T21:03:27.440Z,15.7
2018-04-27T21:09:18.327Z,16.9
2018-04-27T21:15:09.177Z,12.76
2018-04-27T21:21:00.063Z,18.86
2018-04-27T21:26:50.979Z,22.02
2018-04-27T21:32:41.841Z,15.61
2018-04-27T21:38:32.725Z,17.81
2018-04-27T21:44:23.648Z,13.2
2018-04-27T21:50:14.536Z,19.61
2018-04-27T21:56:05.385Z,15.67
2018-04-27T22:01:56.321Z,18.14
2018-04-27T22:07:47.150Z,25.24
2018-04-27T22:13:38.055Z,19.5
2018-04-27T22:19:28.912Z,18.46
2018-04-27T22:25:19.800Z,21.27
2018-04-27T22:31:10.691Z,13.39
2018-04-27T22:37:01.570Z,18.36
2018-04-27T22:42:52.423Z,15.72
2018-04-27T22:48:43.349Z,23.72
2018-04-27T22:54:34.209Z,17.66
2018-04-27T23:00:25.064Z,16.33
2018-04-27T23:06:15.925Z,16.86
2018-04-27T23:12:06.794Z,16.58
2018-04-27T23:17:57.644Z,18.51
2018-04-27T23:23:48.513Z,21.56
2018-04-27T23:29:39.369Z,25.61
2018-04-27T23:35:30.232Z,21.18
2018-04-27T23:41:21.164Z,14.76
2018-04-27T23:47:12.008Z,25.1
2018-04-27T23:53:02.851Z,20.89
2018-04-27T23:58:53.700Z,17.06
